createdAt,value
2022-11-07T00:01:49.005Z,88.60
2022-11-07T00:04:17.341Z,89.75
2022-11-07T00:06:44.830Z,97.93
2022-11-07T00:09:12.521Z,91.18
2022-11-07T00:11:39.925Z,96.10
2022-11-07T00:14:07.554Z,111.53
2022-11-07T00:16:35.160Z,99.85
2022-11-07T00:19:03.340Z,108.78
2022-11-07T00:21:30.661Z,95.72
2022-11-07T00:23:58.372Z,97.43
2022-11-07T00:26:25.604Z,99.47
2022-11-07T00:28:53.371Z,103.97
2022-11-07T00:31:20.784Z,110.32
2022-11-07T00:33:48.724Z,117.63
2022-11-07T00:36:27.396Z,112.65
2022-11-07T00:38:56.080Z,110.47
2022-11-07T00:41:23.698Z,115.57
2022-11-07T00:43:51.886Z,110.13
2022-11-07T00:46:19.913Z,112.05
2022-11-07T00:48:48.236Z,100.65
2022-11-07T00:51:21.051Z,108.78
2022-11-07T00:53:48.927Z,110.78
2022-11-07T00:56:19.787Z,114.03
2022-11-07T00:58:47.762Z,113.15
2022-11-07T01:01:21.159Z,119.95
2022-11-07T01:04:07.883Z,107.40
2022-11-07T01:06:38.259Z,113.70
2022-11-07T01:09:08.253Z,117.97
2022-11-07T01:11:37.880Z,119.65
2022-11-07T01:14:06.463Z,120.25
2022-11-07T01:16:35.631Z,115.78
2022-11-07T01:19:04.163Z,128.55
2022-11-07T01:21:31.561Z,119.18
2022-11-07T01:24:00.430Z,116.68
2022-11-07T01:26:28.016Z,109.00
2022-11-07T01:28:55.782Z,110.95
2022-11-07T01:31:23.212Z,125.53
2022-11-07T01:33:51.131Z,110.93
2022-11-07T01:36:19.122Z,109.95
2022-11-07T01:38:50.886Z,115.22
2022-11-07T01:41:26.789Z,113.22
2022-11-07T01:44:11.637Z,98.45
2022-11-07T01:46:44.437Z,112.72
2022-11-07T01:49:25.106Z,109.78
2022-11-07T01:52:04.393Z,109.35
2022-11-07T01:54:35.105Z,105.15
2022-11-07T01:57:10.163Z,115.78
2022-11-07T01:59:39.131Z,105.10
2022-11-07T02:02:07.270Z,101.95
2022-11-07T02:04:35.292Z,105.25
2022-11-07T02:07:06.992Z,108.47
2022-11-07T02:09:35.116Z,102.23
2022-11-07T02:12:03.180Z,95.90
2022-11-07T02:14:31.102Z,99.18
2022-11-07T02:16:58.534Z,101.38
2022-11-07T02:19:49.512Z,96.50
2022-11-07T02:22:22.556Z,98.32
2022-11-07T02:24:52.739Z,95.78
2022-11-07T02:27:21.980Z,99.75
2022-11-07T02:29:53.721Z,100.97
2022-11-07T02:32:21.065Z,94.72
2022-11-07T02:35:03.797Z,99.20
2022-11-07T02:37:38.945Z,109.10
2022-11-07T02:40:10.405Z,93.05
2022-11-07T02:42:44.744Z,97.70
2022-11-07T02:45:25.261Z,96.25
2022-11-07T02:47:54.104Z,91.65
2022-11-07T02:50:22.111Z,88.80
2022-11-07T02:52:49.530Z,108.07
2022-11-07T02:55:17.562Z,99.05
2022-11-07T02:57:45.226Z,102.40
2022-11-07T03:00:14.365Z,102.82
2022-11-07T03:02:47.485Z,92.85
2022-11-07T03:05:20.041Z,95.05
2022-11-07T03:07:48.972Z,98.07
2022-11-07T03:10:17.623Z,96.47
2022-11-07T03:12:44.981Z,95.70
2022-11-07T03:15:13.592Z,103.28
2022-11-07T03:17:41.619Z,97.55
2022-11-07T03:20:10.132Z,95.90
2022-11-07T03:22:37.560Z,87.45
2022-11-07T03:25:06.510Z,94.07
2022-11-07T03:27:33.862Z,96.65
2022-11-07T03:30:01.770Z,88.55
2022-11-07T03:32:29.114Z,98.95
2022-11-07T03:34:56.871Z,82.30
2022-11-07T03:37:24.081Z,85.80
2022-11-07T03:39:51.772Z,87.15
2022-11-07T03:42:19.342Z,95.10
2022-11-07T03:44:46.984Z,79.78
2022-11-07T03:47:14.480Z,90.47
2022-11-07T03:49:42.254Z,82.43
2022-11-07T03:52:10.823Z,90.50
2022-11-07T03:54:39.565Z,79.55
2022-11-07T03:57:08.333Z,85.57
2022-11-07T03:59:36.070Z,85.00
2022-11-07T04:02:03.588Z,92.25
2022-11-07T04:04:32.435Z,85.38
2022-11-07T04:06:59.903Z,94.45
2022-11-07T04:09:27.496Z,109.50
2022-11-07T04:12:13.762Z,101.45
2022-11-07T04:15:00.379Z,92.78
2022-11-07T04:17:29.359Z,110.60
2022-11-07T04:19:57.364Z,112.65
2022-11-07T04:22:25.781Z,103.32
2022-11-07T04:24:53.656Z,103.97
2022-11-07T04:27:40.003Z,105.43
2022-11-07T04:30:19.697Z,106.40
2022-11-07T04:32:48.727Z,101.38
2022-11-07T04:35:17.207Z,102.47
2022-11-07T04:37:44.992Z,94.85
2022-11-07T04:40:12.766Z,94.47
2022-11-07T04:42:40.461Z,95.97
2022-11-07T04:45:08.840Z,97.38
2022-11-07T04:47:40.187Z,106.28
2022-11-07T04:50:11.943Z,95.72
2022-11-07T04:52:39.971Z,94.35
2022-11-07T04:55:10.423Z,92.25
2022-11-07T04:57:37.852Z,100.95
2022-11-07T05:00:06.169Z,95.55
2022-11-07T05:02:33.558Z,108.50
2022-11-07T05:05:01.520Z,88.90
2022-11-07T05:07:28.834Z,103.15
2022-11-07T05:09:56.720Z,91.15
2022-11-07T05:12:23.977Z,97.03
2022-11-07T05:14:51.690Z,90.55
2022-11-07T05:17:19.248Z,99.03
2022-11-07T05:19:48.012Z,89.60
2022-11-07T05:22:33.907Z,93.45
2022-11-07T05:25:01.617Z,97.50
2022-11-07T05:27:28.939Z,93.57
2022-11-07T05:29:56.507Z,100.28
2022-11-07T05:32:45.695Z,94.03
2022-11-07T05:35:13.214Z,87.55
2022-11-07T05:37:40.540Z,98.80
2022-11-07T05:40:08.772Z,93.88
2022-11-07T05:42:36.222Z,98.05
2022-11-07T05:45:04.091Z,101.28
2022-11-07T05:47:31.612Z,94.22
2022-11-07T05:49:59.352Z,99.18
2022-11-07T05:52:26.811Z,98.22
2022-11-07T05:54:54.512Z,98.00
2022-11-07T05:57:21.970Z,106.15
2022-11-07T05:59:49.674Z,103.10
2022-11-07T06:02:17.242Z,96.32
2022-11-07T06:04:45.145Z,92.32
2022-11-07T06:07:12.794Z,94.95
2022-11-07T06:09:40.424Z,92.20
2022-11-07T06:12:08.157Z,100.68
2022-11-07T06:14:35.903Z,95.07
2022-11-07T06:17:03.698Z,94.70
2022-11-07T06:19:31.625Z,90.85
2022-11-07T06:22:01.431Z,97.68
2022-11-07T06:24:29.507Z,91.60
2022-11-07T06:26:56.995Z,101.60
2022-11-07T06:29:25.155Z,95.22
2022-11-07T06:31:56.294Z,94.30
2022-11-07T06:34:24.812Z,97.25
2022-11-07T06:37:02.544Z,94.47
2022-11-07T06:39:30.972Z,93.47
2022-11-07T06:41:58.252Z,91.90
2022-11-07T06:44:26.000Z,93.35
2022-11-07T06:46:53.738Z,101.45
2022-11-07T06:49:21.309Z,86.32
2022-11-07T06:51:48.690Z,86.03
2022-11-07T06:54:16.541Z,87.70
2022-11-07T06:56:43.910Z,81.68
2022-11-07T06:59:11.652Z,81.93
2022-11-07T07:01:39.259Z,79.68
2022-11-07T07:04:07.081Z,75.78
2022-11-07T07:06:34.512Z,77.00
2022-11-07T07:09:02.736Z,76.13
2022-11-07T07:11:30.232Z,72.85
2022-11-07T07:14:01.920Z,79.95
2022-11-07T07:16:29.766Z,73.20
2022-11-07T07:18:57.449Z,69.22
2022-11-07T07:21:24.961Z,69.18
2022-11-07T07:23:53.195Z,72.10
2022-11-07T07:26:20.564Z,71.10
2022-11-07T07:28:49.321Z,68.88
2022-11-07T07:31:19.946Z,66.28
2022-11-07T07:33:48.842Z,62.08
2022-11-07T07:36:20.512Z,59.30
2022-11-07T07:38:49.770Z,60.30
2022-11-07T07:41:17.831Z,68.13
2022-11-07T07:43:45.554Z,55.20
2022-11-07T07:46:19.990Z,56.85
2022-11-07T07:48:47.570Z,61.22
2022-11-07T07:51:15.263Z,59.97
2022-11-07T07:53:42.942Z,62.72
2022-11-07T07:56:10.380Z,54.33
2022-11-07T07:58:38.040Z,58.13
2022-11-07T08:01:10.548Z,56.38
2022-11-07T08:03:59.634Z,59.83
2022-11-07T08:06:26.226Z,53.50
2022-11-07T08:08:53.863Z,55.13
2022-11-07T08:11:21.638Z,56.42
2022-11-07T08:13:49.297Z,53.90
2022-11-07T08:16:16.594Z,52.33
2022-11-07T08:18:44.472Z,53.05
2022-11-07T08:21:12.195Z,51.05
2022-11-07T08:23:40.391Z,50.50
2022-11-07T08:26:07.777Z,53.78
2022-11-07T08:28:36.484Z,49.50
2022-11-07T08:31:06.703Z,44.75
2022-11-07T08:33:34.922Z,49.60
2022-11-07T08:36:03.105Z,49.55
2022-11-07T08:38:32.581Z,51.03
2022-11-07T08:41:00.512Z,47.00
2022-11-07T08:43:28.716Z,47.58
2022-11-07T08:45:56.522Z,48.72
2022-11-07T08:48:24.819Z,47.95
2022-11-07T08:50:56.676Z,37.88
2022-11-07T08:53:25.781Z,43.55
2022-11-07T08:56:00.105Z,45.40
2022-11-07T08:58:30.322Z,41.55
2022-11-07T09:00:58.452Z,43.63
2022-11-07T09:06:14.022Z,35.72
2022-11-07T09:08:41.877Z,38.17
2022-11-07T09:11:09.716Z,32.92
2022-11-07T09:13:37.888Z,35.78
2022-11-07T09:16:05.924Z,37.42
2022-11-07T09:18:34.123Z,32.97
2022-11-07T09:21:01.371Z,37.42
2022-11-07T09:23:29.765Z,33.05
2022-11-07T09:26:00.943Z,36.45
2022-11-07T09:28:29.977Z,30.95
2022-11-07T09:31:00.214Z,28.65
2022-11-07T09:33:28.938Z,33.10
2022-11-07T09:36:02.072Z,29.52
2022-11-07T09:38:30.165Z,31.42
2022-11-07T09:41:23.870Z,33.10
2022-11-07T09:43:54.881Z,29.35
2022-11-07T09:46:33.320Z,33.65
2022-11-07T09:49:22.293Z,33.50
2022-11-07T09:51:59.286Z,31.77
2022-11-07T09:54:30.006Z,34.53
2022-11-07T09:56:59.666Z,32.53
2022-11-07T09:59:38.430Z,37.40
2022-11-07T10:02:14.773Z,34.88
2022-11-07T10:04:44.069Z,35.97
2022-11-07T10:07:37.002Z,31.60
2022-11-07T10:10:14.168Z,33.58
2022-11-07T10:13:00.304Z,32.45
2022-11-07T10:15:38.594Z,35.60
2022-11-07T10:18:19.641Z,27.75
2022-11-07T10:21:31.291Z,29.70
2022-11-07T10:24:15.902Z,31.38
2022-11-07T10:26:46.371Z,29.75
2022-11-07T10:29:19.462Z,31.92
2022-11-07T10:31:55.295Z,30.00
2022-11-07T10:34:42.348Z,31.38
2022-11-07T10:37:10.311Z,25.00
2022-11-07T10:39:38.036Z,24.75
2022-11-07T10:42:07.345Z,23.52
2022-11-07T10:44:35.672Z,21.42
2022-11-07T10:47:03.733Z,26.73
2022-11-07T10:49:32.714Z,20.77
2022-11-07T10:52:14.891Z,24.25
2022-11-07T10:54:43.631Z,19.00
2022-11-07T10:57:19.955Z,23.17
2022-11-07T10:59:50.450Z,19.90
2022-11-07T11:02:32.813Z,20.20
2022-11-07T11:05:03.020Z,32.17
2022-11-07T11:07:36.885Z,23.98
2022-11-07T11:10:14.037Z,21.65
2022-11-07T11:12:46.252Z,23.98
2022-11-07T11:15:19.642Z,29.65
2022-11-07T11:17:48.214Z,26.75
2022-11-07T11:20:27.673Z,35.45
2022-11-07T11:22:55.417Z,33.53
2022-11-07T11:25:23.993Z,32.60
2022-11-07T11:27:55.888Z,28.92
2022-11-07T11:30:23.599Z,27.38
2022-11-07T11:32:51.373Z,31.38
2022-11-07T11:35:43.400Z,31.67
2022-11-07T11:38:13.736Z,28.88
2022-11-07T11:40:42.922Z,23.23
2022-11-07T11:43:20.458Z,23.50
2022-11-07T11:46:25.586Z,28.40
2022-11-07T11:49:01.035Z,25.45
2022-11-07T11:51:37.114Z,31.70
2022-11-07T11:54:11.599Z,34.50
2022-11-07T11:56:44.816Z,26.88
2022-11-07T11:59:18.586Z,27.95
2022-11-07T12:01:56.702Z,21.60
2022-11-07T12:04:27.810Z,25.35
2022-11-07T12:07:02.521Z,23.02
2022-11-07T12:09:42.891Z,26.60
2022-11-07T12:12:19.555Z,19.33
2022-11-07T12:15:20.332Z,21.10
2022-11-07T12:17:53.305Z,18.45
2022-11-07T12:20:25.447Z,22.77
2022-11-07T12:23:07.009Z,22.08
2022-11-07T12:25:44.909Z,19.30
2022-11-07T12:28:44.006Z,18.77
2022-11-07T12:31:26.055Z,25.73
2022-11-07T12:34:20.351Z,20.85
2022-11-07T12:37:04.469Z,22.02
2022-11-07T12:39:43.610Z,21.10
2022-11-07T12:42:19.083Z,21.77
2022-11-07T12:44:56.177Z,19.70
2022-11-07T12:47:46.644Z,22.92
2022-11-07T12:50:23.174Z,19.75
2022-11-07T12:53:23.028Z,23.80
2022-11-07T12:55:52.854Z,15.60
2022-11-07T12:58:34.357Z,17.45
2022-11-07T13:01:02.537Z,19.83
2022-11-07T13:03:45.982Z,15.98
2022-11-07T13:06:18.813Z,14.73
2022-11-07T13:08:57.725Z,15.18
2022-11-07T13:11:32.947Z,15.70
2022-11-07T13:14:33.227Z,15.60
2022-11-07T13:17:20.725Z,17.02
2022-11-07T13:20:20.836Z,18.05
2022-11-07T13:22:49.802Z,16.13
2022-11-07T13:25:22.739Z,15.23
2022-11-07T13:27:56.071Z,14.55
2022-11-07T13:30:40.232Z,14.02
2022-11-07T13:33:25.271Z,14.40
2022-11-07T13:35:55.509Z,19.42
2022-11-07T13:38:24.769Z,14.80
2022-11-07T13:41:04.911Z,15.65
2022-11-07T13:44:02.729Z,19.83
2022-11-07T13:46:47.078Z,16.60
2022-11-07T13:49:25.109Z,16.85
2022-11-07T13:51:53.785Z,16.92
2022-11-07T13:54:27.678Z,24.17
2022-11-07T13:56:59.850Z,15.68
2022-11-07T13:59:44.488Z,16.65
2022-11-07T14:02:38.535Z,18.75
2022-11-07T14:07:54.324Z,18.67
2022-11-07T14:10:42.387Z,17.00
2022-11-07T14:13:30.336Z,19.65
2022-11-07T14:16:00.697Z,18.80
2022-11-07T14:18:32.282Z,18.33
2022-11-07T14:21:00.492Z,15.55
2022-11-07T14:23:30.231Z,18.38
2022-11-07T14:26:00.991Z,23.80
2022-11-07T14:28:40.677Z,22.40
2022-11-07T14:31:16.680Z,16.40
2022-11-07T14:33:49.495Z,16.38
2022-11-07T14:36:17.697Z,21.73
2022-11-07T14:38:48.371Z,17.48
2022-11-07T14:41:16.356Z,20.98
2022-11-07T14:43:45.194Z,17.70
2022-11-07T14:46:19.289Z,23.88
2022-11-07T14:48:49.540Z,28.27
2022-11-07T14:51:24.726Z,14.50
2022-11-07T14:53:55.742Z,16.20
2022-11-07T14:56:31.002Z,20.33
2022-11-07T14:58:59.170Z,18.75
2022-11-07T15:01:35.910Z,20.98
2022-11-07T15:04:30.367Z,16.02
2022-11-07T15:06:57.793Z,17.42
2022-11-07T15:09:33.787Z,15.32
2022-11-07T15:12:01.548Z,16.70
2022-11-07T15:14:35.298Z,20.98
2022-11-07T15:17:06.389Z,19.73
2022-11-07T15:19:34.954Z,25.40
2022-11-07T15:22:04.641Z,26.83
2022-11-07T15:24:50.938Z,23.60
2022-11-07T15:27:28.227Z,27.95
2022-11-07T15:30:00.378Z,25.15
2022-11-07T15:32:46.099Z,23.15
2022-11-07T15:35:43.118Z,30.42
2022-11-07T15:38:19.658Z,23.60
2022-11-07T15:40:48.049Z,20.23
2022-11-07T15:43:15.856Z,25.85
2022-11-07T15:45:43.715Z,23.20
2022-11-07T15:48:22.157Z,24.30
2022-11-07T15:50:50.312Z,29.05
2022-11-07T15:53:23.425Z,31.85
2022-11-07T15:56:04.852Z,28.63
2022-11-07T15:58:32.626Z,26.02
2022-11-07T16:01:00.793Z,20.77
2022-11-07T16:03:28.583Z,24.45
2022-11-07T16:06:01.853Z,22.77
2022-11-07T16:08:29.862Z,29.63
2022-11-07T16:11:01.885Z,24.55
2022-11-07T16:13:29.651Z,22.25
2022-11-07T16:16:00.520Z,28.55
2022-11-07T16:18:28.233Z,23.30
2022-11-07T16:20:55.888Z,25.35
2022-11-07T16:23:23.228Z,25.10
2022-11-07T16:25:51.438Z,27.52
2022-11-07T16:28:33.376Z,25.27
2022-11-07T16:31:01.474Z,24.23
2022-11-07T16:33:28.896Z,27.20
2022-11-07T16:36:01.420Z,38.58
2022-11-07T16:38:34.938Z,28.55
2022-11-07T16:41:03.256Z,26.77
2022-11-07T16:43:35.180Z,28.42
2022-11-07T16:46:02.905Z,28.10
2022-11-07T16:48:30.597Z,36.80
2022-11-07T16:50:58.332Z,29.70
2022-11-07T16:53:26.192Z,34.58
2022-11-07T16:55:55.343Z,27.02
2022-11-07T16:58:31.006Z,32.35
2022-11-07T17:01:01.867Z,26.42
2022-11-07T17:03:30.272Z,26.45
2022-11-07T17:05:59.774Z,27.45
2022-11-07T17:08:47.922Z,31.38
2022-11-07T17:11:18.053Z,31.58
2022-11-07T17:13:45.792Z,34.92
2022-11-07T17:16:25.771Z,33.03
2022-11-07T17:18:53.444Z,31.75
2022-11-07T17:21:26.810Z,29.27
2022-11-07T17:23:56.286Z,38.55
2022-11-07T17:26:30.338Z,27.35
2022-11-07T17:28:59.121Z,25.38
2022-11-07T17:31:26.821Z,24.55
2022-11-07T17:33:54.135Z,30.20
2022-11-07T17:36:26.041Z,35.88
2022-11-07T17:38:54.469Z,29.40
2022-11-07T17:41:22.324Z,31.10
2022-11-07T17:43:50.516Z,26.13
2022-11-07T17:46:21.061Z,23.83
2022-11-07T17:48:48.811Z,25.90
2022-11-07T17:51:16.632Z,28.45
2022-11-07T17:53:43.817Z,32.03
2022-11-07T17:56:31.076Z,27.55
2022-11-07T17:59:18.742Z,25.40
2022-11-07T18:01:46.954Z,28.10
2022-11-07T18:04:14.633Z,26.40
2022-11-07T18:06:43.527Z,34.55
2022-11-07T18:09:14.687Z,32.70
2022-11-07T18:11:43.664Z,31.10
2022-11-07T18:14:13.191Z,31.00
2022-11-07T18:16:41.169Z,30.48
2022-11-07T18:19:09.908Z,30.42
2022-11-07T18:21:37.558Z,40.50
2022-11-07T18:24:05.202Z,109.32
2022-11-07T18:26:33.673Z,58.38
2022-11-07T18:29:03.741Z,42.83
2022-11-07T18:31:31.520Z,37.15
2022-11-07T18:34:00.318Z,29.27
2022-11-07T18:36:28.303Z,28.67
2022-11-07T18:38:55.597Z,28.85
2022-11-07T18:41:24.301Z,30.90
2022-11-07T18:43:54.010Z,32.38
2022-11-07T18:46:22.141Z,34.97
2022-11-07T18:48:50.868Z,34.08
2022-11-07T18:51:24.121Z,33.45
2022-11-07T18:53:53.342Z,27.77
2022-11-07T18:56:21.760Z,29.52
2022-11-07T18:58:49.222Z,28.92
2022-11-07T19:01:19.890Z,30.52
2022-11-07T19:03:48.036Z,34.80
2022-11-07T19:06:17.804Z,35.40
2022-11-07T19:08:49.575Z,39.83
2022-11-07T19:11:25.534Z,43.93
2022-11-07T19:13:53.295Z,44.90
2022-11-07T19:16:24.776Z,34.63
2022-11-07T19:18:52.312Z,38.15
2022-11-07T19:21:21.350Z,42.58
2022-11-07T19:23:50.104Z,43.08
2022-11-07T19:26:19.347Z,34.70
2022-11-07T19:28:47.271Z,44.85
2022-11-07T19:31:15.021Z,38.42
2022-11-07T19:33:42.969Z,46.05
2022-11-07T19:36:20.130Z,40.22
2022-11-07T19:38:48.359Z,40.95
2022-11-07T19:41:17.353Z,42.30
2022-11-07T19:43:48.593Z,40.13
2022-11-07T19:46:19.306Z,40.92
2022-11-07T19:48:47.830Z,34.75
2022-11-07T19:51:21.644Z,35.22
2022-11-07T19:53:55.881Z,34.97
2022-11-07T19:56:25.480Z,36.15
2022-11-07T19:58:53.712Z,31.02
2022-11-07T20:01:27.837Z,32.67
2022-11-07T20:03:56.160Z,32.83
2022-11-07T20:06:27.247Z,35.17
2022-11-07T20:08:54.728Z,30.35
2022-11-07T20:11:24.291Z,29.98
2022-11-07T20:13:54.736Z,28.17
2022-11-07T20:16:24.145Z,32.22
2022-11-07T20:18:51.644Z,29.42
2022-11-07T20:21:21.646Z,36.00
2022-11-07T20:23:50.076Z,56.58
2022-11-07T20:26:20.538Z,53.55
2022-11-07T20:28:49.247Z,36.30
2022-11-07T20:31:19.918Z,32.75
2022-11-07T20:33:47.656Z,31.00
2022-11-07T20:36:16.984Z,31.35
2022-11-07T20:38:44.911Z,31.17
2022-11-07T20:41:13.665Z,31.00
2022-11-07T20:43:43.660Z,30.85
2022-11-07T20:46:14.728Z,32.33
2022-11-07T20:48:43.061Z,28.00
2022-11-07T20:51:13.171Z,28.90
2022-11-07T20:53:46.819Z,30.15
2022-11-07T20:56:18.095Z,32.13
2022-11-07T20:58:46.628Z,31.80
2022-11-07T21:01:17.354Z,30.50
2022-11-07T21:03:45.316Z,27.17
2022-11-07T21:06:13.243Z,24.48
2022-11-07T21:08:42.381Z,30.15
2022-11-07T21:11:11.443Z,44.03
2022-11-07T21:13:39.448Z,29.63
2022-11-07T21:16:08.036Z,26.40
2022-11-07T21:18:37.463Z,29.65
2022-11-07T21:21:18.762Z,29.33
2022-11-07T21:23:46.950Z,27.02
2022-11-07T21:26:17.426Z,34.20
2022-11-07T21:28:44.985Z,28.35
2022-11-07T21:31:15.262Z,31.17
2022-11-07T21:33:42.705Z,25.85
2022-11-07T21:36:12.123Z,29.65
2022-11-07T21:38:39.676Z,24.27
2022-11-07T21:41:09.195Z,30.02
2022-11-07T21:43:36.751Z,28.77
2022-11-07T21:46:24.450Z,31.20
2022-11-07T21:48:52.229Z,27.83
2022-11-07T21:51:22.344Z,30.52
2022-11-07T21:53:50.091Z,31.23
2022-11-07T21:56:29.201Z,33.38
2022-11-07T21:58:59.062Z,31.00
2022-11-07T22:01:28.219Z,30.98
2022-11-07T22:04:12.462Z,26.27
2022-11-07T22:06:44.159Z,34.85
2022-11-07T22:09:15.031Z,32.85
2022-11-07T22:11:43.719Z,31.90
2022-11-07T22:14:14.623Z,36.10
2022-11-07T22:16:42.770Z,27.67
2022-11-07T22:19:12.705Z,34.47
2022-11-07T22:21:41.230Z,36.85
2022-11-07T22:24:09.459Z,31.38
2022-11-07T22:26:37.460Z,32.72
2022-11-07T22:29:04.880Z,34.45
2022-11-07T22:31:32.571Z,29.77
2022-11-07T22:34:00.979Z,33.42
2022-11-07T22:36:29.382Z,36.20
2022-11-07T22:38:57.812Z,32.42
2022-11-07T22:41:27.182Z,34.17
2022-11-07T22:43:55.144Z,33.03
2022-11-07T22:46:24.790Z,38.58
2022-11-07T22:48:53.394Z,34.00
2022-11-07T22:51:27.866Z,30.27
2022-11-07T22:54:03.378Z,30.67
2022-11-07T22:56:32.371Z,31.42
2022-11-07T22:59:00.026Z,32.72
2022-11-07T23:01:34.317Z,33.90
2022-11-07T23:04:01.991Z,34.53
2022-11-07T23:06:30.417Z,35.25
2022-11-07T23:08:58.800Z,41.42
2022-11-07T23:11:50.804Z,35.47
2022-11-07T23:14:20.242Z,37.20
2022-11-07T23:16:53.284Z,35.55
2022-11-07T23:19:23.537Z,33.42
2022-11-07T23:21:53.776Z,38.67
2022-11-07T23:24:21.269Z,34.75
2022-11-07T23:26:49.607Z,33.95
2022-11-07T23:29:19.808Z,36.22
2022-11-07T23:31:48.758Z,32.45
2022-11-07T23:34:16.971Z,33.70
2022-11-07T23:36:45.133Z,31.27
2022-11-07T23:39:15.804Z,29.45
2022-11-07T23:41:43.737Z,30.65
2022-11-07T23:44:11.294Z,32.83
2022-11-07T23:46:57.641Z,28.67
2022-11-07T23:49:43.377Z,32.13
2022-11-07T23:52:11.028Z,31.25
2022-11-07T23:54:57.035Z,33.63
2022-11-07T23:57:24.936Z,30.08
